createdAt,value
2022-09-17T00:00:54.372Z,0.00
2022-09-17T00:01:54.413Z,0.00
2022-09-17T00:02:54.393Z,0.00
2022-09-17T00:03:54.328Z,0.00
2022-09-17T00:04:54.332Z,0.00
2022-09-17T00:05:54.316Z,0.00
2022-09-17T00:06:54.310Z,0.00
2022-09-17T00:07:54.337Z,0.00
2022-09-17T00:08:54.269Z,0.00
2022-09-17T00:09:54.269Z,0.00
2022-09-17T00:10:54.250Z,0.00
2022-09-17T00:11:54.250Z,0.00
2022-09-17T00:12:54.274Z,0.00
2022-09-17T00:13:54.236Z,0.00
2022-09-17T00:14:54.210Z,0.00
2022-09-17T00:15:54.223Z,0.00
2022-09-17T00:16:54.254Z,0.00
2022-09-17T00:17:54.197Z,0.00
2022-09-17T00:18:54.148Z,0.00
2022-09-17T00:19:54.143Z,0.00
2022-09-17T00:20:54.149Z,0.00
2022-09-17T00:21:54.121Z,0.00
2022-09-17T00:22:54.153Z,0.00
2022-09-17T00:23:54.116Z,0.00
2022-09-17T00:24:54.082Z,0.00
2022-09-17T00:25:54.093Z,0.00
2022-09-17T00:26:54.071Z,0.00
2022-09-17T00:27:54.107Z,0.00
2022-09-17T00:28:54.058Z,0.00
2022-09-17T00:29:54.055Z,0.00
2022-09-17T00:30:54.103Z,0.00
2022-09-17T00:31:54.034Z,0.00
2022-09-17T00:32:54.041Z,0.00
2022-09-17T00:33:53.987Z,0.00
2022-09-17T00:34:53.989Z,0.00
2022-09-17T00:35:53.974Z,0.00
2022-09-17T00:36:53.976Z,0.00
2022-09-17T00:37:54.005Z,0.00
2022-09-17T00:38:53.952Z,0.00
2022-09-17T00:39:54.038Z,0.00
2022-09-17T00:40:53.917Z,0.00
2022-09-17T00:41:53.920Z,0.00
2022-09-17T00:42:53.919Z,0.00
2022-09-17T00:43:53.900Z,0.00
2022-09-17T00:44:53.867Z,0.00
2022-09-17T00:45:53.874Z,0.00
2022-09-17T00:46:53.979Z,0.00
2022-09-17T00:47:53.893Z,0.00
2022-09-17T00:48:53.812Z,0.00
2022-09-17T00:49:53.809Z,0.00
2022-09-17T00:50:53.790Z,0.00
2022-09-17T00:51:58.269Z,0.00
2022-09-17T00:52:54.798Z,0.00
2022-09-17T00:53:53.772Z,0.00
2022-09-17T00:54:53.742Z,0.00
2022-09-17T00:55:53.756Z,0.00
2022-09-17T00:56:53.728Z,0.00
2022-09-17T00:57:53.770Z,0.00
2022-09-17T00:58:53.712Z,0.00
2022-09-17T00:59:53.715Z,0.00
2022-09-17T01:00:53.710Z,0.00
2022-09-17T01:01:53.715Z,0.00
2022-09-17T01:02:53.701Z,0.00
2022-09-17T01:03:53.652Z,0.00
2022-09-17T01:04:53.653Z,0.00
2022-09-17T01:05:53.632Z,0.00
2022-09-17T01:06:53.622Z,0.00
2022-09-17T01:07:53.656Z,0.00
2022-09-17T01:08:53.614Z,0.00
2022-09-17T01:09:53.591Z,0.00
2022-09-17T01:10:53.574Z,0.00
2022-09-17T01:11:53.572Z,0.00
2022-09-17T01:12:53.590Z,0.00
2022-09-17T01:13:53.550Z,0.00
2022-09-17T01:14:53.532Z,0.00
2022-09-17T01:15:53.610Z,0.00
2022-09-17T01:16:53.508Z,0.00
2022-09-17T01:17:53.530Z,0.00
2022-09-17T01:18:53.490Z,0.00
2022-09-17T01:19:53.472Z,0.00
2022-09-17T01:20:53.453Z,0.00
2022-09-17T01:21:53.452Z,0.00
2022-09-17T01:22:53.469Z,0.00
2022-09-17T01:23:53.435Z,0.00
2022-09-17T01:24:53.409Z,0.00
2022-09-17T01:25:53.452Z,0.00
2022-09-17T01:26:53.388Z,0.00
2022-09-17T01:27:53.416Z,0.00
2022-09-17T01:28:53.367Z,0.00
2022-09-17T01:29:53.370Z,0.00
2022-09-17T01:30:53.346Z,0.00
2022-09-17T01:31:53.425Z,0.00
2022-09-17T01:32:53.362Z,0.00
2022-09-17T01:33:53.308Z,0.00
2022-09-17T01:34:53.295Z,0.00
2022-09-17T01:35:53.291Z,0.00
2022-09-17T01:36:53.293Z,0.00
2022-09-17T01:37:53.278Z,0.00
2022-09-17T01:38:53.289Z,0.00
2022-09-17T01:39:53.299Z,0.00
2022-09-17T01:40:53.231Z,0.00
2022-09-17T01:41:53.230Z,0.00
2022-09-17T01:42:53.213Z,0.00
2022-09-17T01:43:53.238Z,0.00
2022-09-17T01:44:53.190Z,0.00
2022-09-17T01:45:53.189Z,0.00
2022-09-17T01:46:53.210Z,0.00
2022-09-17T01:47:53.195Z,0.00
2022-09-17T01:48:53.153Z,0.00
2022-09-17T01:49:53.127Z,0.00
2022-09-17T01:50:53.136Z,0.00
2022-09-17T01:51:53.112Z,0.00
2022-09-17T01:52:53.118Z,0.00
2022-09-17T01:53:53.319Z,0.00
2022-09-17T01:54:53.057Z,0.00
2022-09-17T01:55:53.079Z,0.00
2022-09-17T01:56:53.053Z,0.00
2022-09-17T01:57:53.087Z,0.00
2022-09-17T01:58:53.029Z,0.00
2022-09-17T01:59:53.038Z,0.00
2022-09-17T02:00:53.050Z,0.00
2022-09-17T02:01:53.078Z,0.00
2022-09-17T02:02:53.021Z,0.00
2022-09-17T02:03:53.043Z,0.00
2022-09-17T02:04:52.969Z,0.00
2022-09-17T02:05:52.951Z,0.00
2022-09-17T02:06:52.957Z,0.00
2022-09-17T02:07:52.934Z,0.00
2022-09-17T02:08:52.954Z,0.00
2022-09-17T02:09:52.912Z,0.00
2022-09-17T02:10:52.892Z,0.00
2022-09-17T02:11:52.919Z,0.00
2022-09-17T02:12:52.916Z,0.00
2022-09-17T02:13:52.882Z,0.00
2022-09-17T02:14:52.849Z,0.00
2022-09-17T02:15:52.875Z,0.00
2022-09-17T02:16:52.836Z,0.00
2022-09-17T02:17:52.860Z,0.00
2022-09-17T02:18:52.811Z,0.00
2022-09-17T02:19:52.791Z,0.00
2022-09-17T02:20:52.795Z,0.00
2022-09-17T02:21:52.771Z,0.00
2022-09-17T02:22:52.791Z,0.00
2022-09-17T02:23:52.759Z,0.00
2022-09-17T02:24:52.729Z,0.00
2022-09-17T02:25:52.716Z,0.00
2022-09-17T02:26:52.712Z,0.00
2022-09-17T02:27:52.738Z,0.00
2022-09-17T02:28:52.683Z,0.00
2022-09-17T02:29:52.669Z,0.00
2022-09-17T02:30:52.663Z,0.00
2022-09-17T02:31:52.718Z,0.00
2022-09-17T02:32:52.669Z,0.00
2022-09-17T02:33:52.785Z,0.00
2022-09-17T02:34:52.618Z,0.00
2022-09-17T02:35:52.623Z,0.00
2022-09-17T02:36:52.586Z,0.00
2022-09-17T02:37:52.625Z,0.00
2022-09-17T02:38:52.566Z,0.00
2022-09-17T02:39:52.603Z,0.00
2022-09-17T02:40:52.545Z,0.00
2022-09-17T02:41:52.539Z,0.00
2022-09-17T02:42:52.570Z,0.00
2022-09-17T02:43:52.520Z,0.00
2022-09-17T02:44:52.497Z,0.00
2022-09-17T02:45:52.494Z,0.00
2022-09-17T02:46:52.533Z,0.00
2022-09-17T02:47:52.475Z,0.00
2022-09-17T02:48:52.493Z,0.00
2022-09-17T02:49:52.451Z,0.00
2022-09-17T02:50:52.432Z,0.00
2022-09-17T02:51:52.422Z,0.00
2022-09-17T02:52:52.400Z,0.00
2022-09-17T02:53:52.448Z,0.00
2022-09-17T02:54:52.376Z,0.00
2022-09-17T02:55:52.379Z,0.00
2022-09-17T02:56:52.378Z,0.00
2022-09-17T02:57:52.416Z,0.00
2022-09-17T02:58:52.339Z,0.00
2022-09-17T02:59:52.322Z,0.00
2022-09-17T03:00:52.349Z,0.00
2022-09-17T03:01:52.378Z,0.00
2022-09-17T03:02:52.337Z,0.00
2022-09-17T03:03:52.288Z,0.00
2022-09-17T03:04:52.279Z,0.00
2022-09-17T03:05:52.268Z,0.00
2022-09-17T03:06:52.263Z,0.00
2022-09-17T03:07:52.240Z,0.00
2022-09-17T03:08:52.261Z,0.00
2022-09-17T03:09:52.222Z,0.00
2022-09-17T03:10:52.200Z,0.00
2022-09-17T03:11:52.194Z,0.00
2022-09-17T03:12:52.188Z,0.00
2022-09-17T03:13:52.224Z,0.00
2022-09-17T03:14:52.164Z,0.00
2022-09-17T03:15:52.179Z,0.00
2022-09-17T03:16:52.137Z,0.00
2022-09-17T03:17:53.545Z,0.00
2022-09-17T03:18:52.157Z,0.00
2022-09-17T03:19:52.107Z,0.00
2022-09-17T03:20:52.087Z,0.00
2022-09-17T03:21:52.091Z,0.00
2022-09-17T03:22:52.089Z,0.00
2022-09-17T03:23:52.098Z,0.00
2022-09-17T03:24:52.057Z,0.00
2022-09-17T03:25:52.043Z,0.00
2022-09-17T03:26:52.027Z,0.00
2022-09-17T03:27:52.022Z,0.00
2022-09-17T03:28:52.040Z,0.00
2022-09-17T03:29:51.997Z,0.00
2022-09-17T03:30:51.975Z,0.00
2022-09-17T03:31:51.968Z,0.00
2022-09-17T03:32:51.951Z,0.00
2022-09-17T03:33:51.992Z,0.00
2022-09-17T03:34:51.929Z,0.00
2022-09-17T03:35:51.932Z,0.00
2022-09-17T03:36:51.908Z,0.00
2022-09-17T03:37:51.905Z,0.00
2022-09-17T03:38:51.891Z,0.00
2022-09-17T03:39:52.010Z,0.00
2022-09-17T03:40:51.860Z,0.00
2022-09-17T03:41:51.849Z,0.00
2022-09-17T03:42:51.841Z,0.00
2022-09-17T03:43:51.876Z,0.00
2022-09-17T03:44:51.853Z,0.00
2022-09-17T03:45:51.813Z,0.00
2022-09-17T03:46:51.869Z,0.00
2022-09-17T03:47:51.792Z,0.00
2022-09-17T03:48:51.782Z,0.00
2022-09-17T03:49:51.814Z,0.00
2022-09-17T03:50:51.764Z,0.00
2022-09-17T03:51:51.740Z,0.00
2022-09-17T03:52:51.724Z,0.00
2022-09-17T03:53:51.727Z,0.00
2022-09-17T03:54:51.761Z,0.00
2022-09-17T03:55:51.712Z,0.00
2022-09-17T03:56:51.687Z,0.00
2022-09-17T03:57:51.684Z,0.00
2022-09-17T03:58:51.662Z,0.00
2022-09-17T03:59:51.687Z,0.00
2022-09-17T04:00:51.648Z,0.00
2022-09-17T04:01:51.771Z,0.00
2022-09-17T04:02:51.658Z,0.00
2022-09-17T04:03:51.613Z,0.00
2022-09-17T04:04:51.627Z,0.00
2022-09-17T04:05:51.568Z,0.00
2022-09-17T04:06:51.566Z,0.00
2022-09-17T04:07:51.557Z,0.00
2022-09-17T04:08:51.556Z,0.00
2022-09-17T04:09:51.570Z,0.00
2022-09-17T04:10:51.529Z,4.00
2022-09-17T04:11:51.513Z,0.00
2022-09-17T04:12:51.506Z,4.00
2022-09-17T04:13:51.494Z,4.00
2022-09-17T04:14:51.519Z,4.00
2022-09-17T04:15:51.519Z,4.00
2022-09-17T04:16:52.101Z,4.00
2022-09-17T04:17:51.444Z,8.00
2022-09-17T04:18:51.432Z,8.00
2022-09-17T04:19:51.469Z,8.00
2022-09-17T04:20:51.425Z,12.00
2022-09-17T04:21:51.399Z,12.00
2022-09-17T04:22:51.421Z,16.00
2022-09-17T04:23:51.381Z,16.00
2022-09-17T04:24:51.424Z,20.00
2022-09-17T04:25:51.349Z,24.00
2022-09-17T04:26:51.349Z,24.00
2022-09-17T04:27:51.339Z,28.00
2022-09-17T04:28:51.333Z,32.00
2022-09-17T04:29:51.307Z,32.00
2022-09-17T04:30:51.391Z,32.00
2022-09-17T04:31:51.284Z,40.00
2022-09-17T04:32:51.282Z,44.00
2022-09-17T04:33:51.268Z,40.00
2022-09-17T04:34:51.259Z,48.00
2022-09-17T04:35:51.276Z,60.00
2022-09-17T04:36:51.234Z,60.00
2022-09-17T04:37:51.320Z,64.00
2022-09-17T04:38:51.209Z,76.00
2022-09-17T04:39:51.232Z,84.00
2022-09-17T04:40:51.236Z,88.00
2022-09-17T04:41:51.178Z,100.00
2022-09-17T04:42:51.171Z,112.00
2022-09-17T04:43:51.151Z,120.00
2022-09-17T04:44:51.144Z,132.00
2022-09-17T04:45:51.165Z,156.00
2022-09-17T04:46:51.207Z,176.00
2022-09-17T04:47:51.176Z,176.00
2022-09-17T04:48:51.093Z,196.00
2022-09-17T04:49:51.081Z,212.00
2022-09-17T04:50:51.118Z,216.00
2022-09-17T04:51:51.062Z,216.00
2022-09-17T04:52:51.056Z,220.00
2022-09-17T04:53:51.030Z,224.00
2022-09-17T04:54:51.036Z,272.00
2022-09-17T04:55:51.061Z,356.00
2022-09-17T04:56:51.014Z,336.00
2022-09-17T04:57:51.070Z,332.00
2022-09-17T04:58:50.983Z,384.00
2022-09-17T04:59:50.971Z,428.00
2022-09-17T05:00:51.061Z,440.00
2022-09-17T05:01:51.043Z,484.00
2022-09-17T05:02:50.955Z,548.00
2022-09-17T05:03:50.924Z,588.00
2022-09-17T05:04:50.918Z,600.00
2022-09-17T05:05:50.947Z,636.00
2022-09-17T05:06:50.899Z,648.00
2022-09-17T05:07:50.880Z,628.00
2022-09-17T05:08:50.881Z,656.00
2022-09-17T05:09:50.898Z,740.00
2022-09-17T05:10:50.898Z,824.00
2022-09-17T05:11:50.832Z,940.00
2022-09-17T05:12:50.819Z,1120.00
2022-09-17T05:13:50.802Z,1072.00
2022-09-17T05:14:50.807Z,1140.00
2022-09-17T05:15:50.862Z,1152.00
2022-09-17T05:16:50.785Z,1104.00
2022-09-17T05:17:50.776Z,1168.00
2022-09-17T05:18:50.762Z,1204.00
2022-09-17T05:19:50.744Z,1160.00
2022-09-17T05:20:50.788Z,1184.00
2022-09-17T05:21:50.722Z,1216.00
2022-09-17T05:22:50.716Z,1256.00
2022-09-17T05:23:50.697Z,1324.00
2022-09-17T05:24:50.701Z,1332.00
2022-09-17T05:25:50.716Z,1396.00
2022-09-17T05:26:50.678Z,1536.00
2022-09-17T05:27:50.654Z,1712.00
2022-09-17T05:28:50.655Z,1824.00
2022-09-17T05:29:50.634Z,1876.00
2022-09-17T05:30:50.789Z,1908.00
2022-09-17T05:31:50.610Z,1948.00
2022-09-17T05:32:50.607Z,2048.00
2022-09-17T05:33:50.597Z,2060.00
2022-09-17T05:34:50.652Z,2072.00
2022-09-17T05:35:50.556Z,2124.00
2022-09-17T05:36:50.564Z,2296.00
2022-09-17T05:37:50.552Z,2552.00
2022-09-17T05:38:50.537Z,2744.00
2022-09-17T05:39:50.553Z,2912.00
2022-09-17T05:40:50.547Z,3248.00
2022-09-17T05:41:50.504Z,3672.00
2022-09-17T05:42:50.490Z,4036.00
2022-09-17T05:43:50.468Z,4260.00
2022-09-17T05:44:50.478Z,4412.00
2022-09-17T05:45:50.474Z,4604.00
2022-09-17T05:46:50.466Z,4856.00
2022-09-17T05:47:50.417Z,4780.00
2022-09-17T05:48:50.421Z,4164.00
2022-09-17T05:49:50.410Z,4028.00
2022-09-17T05:50:50.432Z,4228.00
2022-09-17T05:51:50.383Z,4300.00
2022-09-17T05:52:50.377Z,4048.00
2022-09-17T05:53:50.359Z,3932.00
2022-09-17T05:54:50.359Z,3924.00
2022-09-17T05:55:50.406Z,4148.00
2022-09-17T05:56:50.335Z,3988.00
2022-09-17T05:57:50.318Z,4084.00
2022-09-17T05:58:50.386Z,4192.00
2022-09-17T05:59:50.287Z,4424.00
2022-09-17T06:00:50.341Z,4516.00
2022-09-17T06:01:50.323Z,4592.00
2022-09-17T06:02:50.342Z,4488.00
2022-09-17T06:03:50.246Z,4508.00
2022-09-17T06:04:50.246Z,4456.00
2022-09-17T06:05:50.269Z,4424.00
2022-09-17T06:06:50.221Z,4560.00
2022-09-17T06:07:50.203Z,4392.00
2022-09-17T06:08:50.201Z,4392.00
2022-09-17T06:09:50.183Z,4672.00
2022-09-17T06:10:50.209Z,5112.00
2022-09-17T06:11:50.159Z,6064.00
2022-09-17T06:12:50.154Z,7564.00
2022-09-17T06:13:50.167Z,8596.00
2022-09-17T06:14:50.130Z,8172.00
2022-09-17T06:15:50.182Z,7804.00
2022-09-17T06:16:50.108Z,8816.00
2022-09-17T06:17:50.097Z,10820.00
2022-09-17T06:18:50.089Z,11288.00
2022-09-17T06:19:50.066Z,11296.00
2022-09-17T06:20:50.102Z,11220.00
2022-09-17T06:21:50.033Z,11352.00
2022-09-17T06:22:50.032Z,10812.00
2022-09-17T06:23:50.020Z,10360.00
2022-09-17T06:24:50.118Z,10948.00
2022-09-17T06:25:50.048Z,10020.00
2022-09-17T06:26:50.000Z,8728.00
2022-09-17T06:27:49.977Z,7428.00
2022-09-17T06:28:50.064Z,5904.00
2022-09-17T06:29:49.965Z,5888.00
2022-09-17T06:30:49.984Z,6692.00
2022-09-17T06:31:49.997Z,7788.00
2022-09-17T06:32:49.966Z,8664.00
2022-09-17T06:33:49.912Z,9380.00
2022-09-17T06:34:49.907Z,9336.00
2022-09-17T06:35:49.941Z,8644.00
2022-09-17T06:36:49.887Z,9752.00
2022-09-17T06:37:49.878Z,10936.00
2022-09-17T06:38:49.869Z,10424.00
2022-09-17T06:39:49.883Z,11344.00
2022-09-17T06:40:49.903Z,12420.00
2022-09-17T06:41:49.821Z,12696.00
2022-09-17T06:42:49.822Z,13248.00
2022-09-17T06:43:49.794Z,13180.00
2022-09-17T06:44:49.798Z,12456.00
2022-09-17T06:45:49.829Z,12772.00
2022-09-17T06:46:49.863Z,11008.00
2022-09-17T06:47:49.762Z,12388.00
2022-09-17T06:48:49.747Z,11952.00
2022-09-17T06:49:49.733Z,14724.00
2022-09-17T06:50:49.767Z,15272.00
2022-09-17T06:51:49.700Z,15116.00
2022-09-17T06:52:49.695Z,14656.00
2022-09-17T06:53:49.684Z,15304.00
2022-09-17T06:54:49.689Z,14724.00
2022-09-17T06:55:49.709Z,14972.00
2022-09-17T06:56:49.662Z,11260.00
2022-09-17T06:57:49.646Z,11608.00
2022-09-17T06:58:49.643Z,14448.00
2022-09-17T06:59:49.633Z,14820.00
2022-09-17T07:00:49.737Z,13536.00
2022-09-17T07:01:49.645Z,11260.00
2022-09-17T07:02:49.582Z,9776.00
2022-09-17T07:03:49.567Z,8364.00
2022-09-17T07:04:49.568Z,10140.00
2022-09-17T07:05:49.584Z,11832.00
2022-09-17T07:06:49.558Z,12380.00
2022-09-17T07:07:49.548Z,12852.00
2022-09-17T07:08:49.524Z,11688.00
2022-09-17T07:09:49.509Z,11008.00
2022-09-17T07:10:49.527Z,9788.00
2022-09-17T07:11:49.483Z,7988.00
2022-09-17T07:12:50.141Z,10644.00
2022-09-17T07:13:49.508Z,14276.00
2022-09-17T07:14:49.466Z,12436.00
2022-09-17T07:15:49.508Z,14428.00
2022-09-17T07:16:49.423Z,12468.00
2022-09-17T07:17:49.427Z,12180.00
2022-09-17T07:18:49.415Z,12564.00
2022-09-17T07:19:49.400Z,12936.00
2022-09-17T07:20:49.427Z,14176.00
2022-09-17T07:21:49.357Z,14200.00
2022-09-17T07:22:49.357Z,12232.00
2022-09-17T07:23:49.332Z,11380.00
2022-09-17T07:24:49.322Z,10472.00
2022-09-17T07:25:49.390Z,9340.00
2022-09-17T07:26:49.324Z,7748.00
2022-09-17T07:27:49.294Z,7032.00
2022-09-17T07:28:49.317Z,8176.00
2022-09-17T07:29:49.282Z,8472.00
2022-09-17T07:30:49.365Z,7544.00
2022-09-17T07:31:49.302Z,9672.00
2022-09-17T07:32:49.244Z,10000.00
2022-09-17T07:33:49.246Z,10188.00
2022-09-17T07:34:49.209Z,12280.00
2022-09-17T07:35:49.247Z,13572.00
2022-09-17T07:36:49.205Z,13608.00
2022-09-17T07:37:49.185Z,12496.00
2022-09-17T07:38:49.217Z,17152.00
2022-09-17T07:39:49.293Z,13708.00
2022-09-17T07:40:49.194Z,14452.00
2022-09-17T07:41:49.147Z,17128.00
2022-09-17T07:42:49.160Z,16372.00
2022-09-17T07:43:49.123Z,16728.00
2022-09-17T07:44:49.124Z,15536.00
2022-09-17T07:45:49.141Z,14640.00
2022-09-17T07:46:49.158Z,12036.00
2022-09-17T07:47:49.075Z,11688.00
2022-09-17T07:48:49.080Z,12068.00
2022-09-17T07:49:49.063Z,14068.00
2022-09-17T07:50:49.090Z,16896.00
2022-09-17T07:51:49.047Z,18880.00
2022-09-17T07:52:49.029Z,19104.00
2022-09-17T07:53:49.091Z,19104.00
2022-09-17T07:54:48.993Z,19264.00
2022-09-17T07:55:49.016Z,20224.00
2022-09-17T07:56:48.962Z,22816.00
2022-09-17T07:57:48.964Z,21792.00
2022-09-17T07:58:48.964Z,23584.00
2022-09-17T07:59:48.943Z,23840.00
2022-09-17T08:00:48.982Z,24800.00
2022-09-17T08:01:49.021Z,31264.00
2022-09-17T08:02:48.973Z,26944.00
2022-09-17T08:03:48.882Z,28960.00
2022-09-17T08:04:48.882Z,33888.00
2022-09-17T08:05:48.910Z,31520.00
2022-09-17T08:06:48.866Z,36736.00
2022-09-17T08:07:48.880Z,31872.00
2022-09-17T08:08:48.858Z,26240.00
2022-09-17T08:09:48.833Z,21120.00
2022-09-17T08:10:48.894Z,21344.00
2022-09-17T08:11:55.758Z,20192.00
2022-09-17T08:12:49.816Z,18688.00
2022-09-17T08:13:48.781Z,17892.00
2022-09-17T08:14:48.765Z,18720.00
2022-09-17T08:15:48.797Z,19392.00
2022-09-17T08:16:48.800Z,19456.00
2022-09-17T08:17:48.739Z,17772.00
2022-09-17T08:18:48.731Z,20736.00
2022-09-17T08:19:48.725Z,24800.00
2022-09-17T08:20:48.715Z,25568.00
2022-09-17T08:21:48.712Z,23296.00
2022-09-17T08:22:50.340Z,16788.00
2022-09-17T08:23:48.715Z,15788.00
2022-09-17T08:24:48.658Z,13884.00
2022-09-17T08:25:48.631Z,27392.00
2022-09-17T08:26:48.651Z,32960.00
2022-09-17T08:27:48.604Z,44000.00
2022-09-17T08:28:48.587Z,59968.00
2022-09-17T08:29:48.603Z,71456.00
2022-09-17T08:30:48.587Z,83552.00
2022-09-17T08:31:48.686Z,48832.00
2022-09-17T08:32:48.560Z,42720.00
2022-09-17T08:33:48.543Z,27424.00
2022-09-17T08:34:48.536Z,29376.00
2022-09-17T08:35:48.518Z,32896.00
2022-09-17T08:36:48.537Z,52192.00
2022-09-17T08:37:48.510Z,62208.00
2022-09-17T08:38:48.585Z,43968.00
2022-09-17T08:39:48.488Z,50656.00
2022-09-17T08:40:48.485Z,33280.00
2022-09-17T08:41:48.488Z,107904.00
2022-09-17T08:42:48.444Z,39936.00
2022-09-17T08:43:48.443Z,33952.00
2022-09-17T08:44:51.619Z,32224.00
2022-09-17T08:45:48.431Z,30624.00
2022-09-17T08:46:48.503Z,28480.00
2022-09-17T08:47:48.423Z,55392.00
2022-09-17T08:48:48.379Z,29088.00
2022-09-17T08:49:48.389Z,38624.00
2022-09-17T08:50:48.388Z,76544.00
2022-09-17T08:51:48.405Z,26400.00
2022-09-17T08:52:48.339Z,24832.00
2022-09-17T08:53:48.318Z,27488.00
2022-09-17T08:54:48.326Z,27552.00
2022-09-17T08:55:48.308Z,21920.00
2022-09-17T08:56:48.327Z,16200.00
2022-09-17T08:57:48.271Z,13168.00
2022-09-17T08:58:48.249Z,10896.00
2022-09-17T08:59:48.244Z,10748.00
2022-09-17T09:00:48.242Z,8396.00
2022-09-17T09:01:48.316Z,8824.00
2022-09-17T09:02:48.289Z,10104.00
2022-09-17T09:03:48.232Z,12348.00
2022-09-17T09:04:48.207Z,12436.00
2022-09-17T09:05:48.219Z,12236.00
2022-09-17T09:06:48.207Z,12868.00
2022-09-17T09:07:48.169Z,46240.00
2022-09-17T09:08:48.157Z,58752.00
2022-09-17T09:09:48.146Z,82464.00
2022-09-17T09:10:48.142Z,40224.00
2022-09-17T09:11:48.167Z,71840.00
2022-09-17T09:12:48.112Z,84256.00
2022-09-17T09:13:48.109Z,77120.00
2022-09-17T09:14:48.082Z,70400.00
2022-09-17T09:15:48.138Z,61664.00
2022-09-17T09:16:48.109Z,23616.00
2022-09-17T09:17:48.068Z,35200.00
2022-09-17T09:18:48.045Z,22624.00
2022-09-17T09:19:48.041Z,25536.00
2022-09-17T09:20:48.015Z,33568.00
2022-09-17T09:21:48.059Z,48288.00
2022-09-17T09:22:48.002Z,70304.00
2022-09-17T09:23:47.983Z,51648.00
2022-09-17T09:24:47.981Z,28032.00
2022-09-17T09:25:47.970Z,26656.00
2022-09-17T09:26:47.983Z,27936.00
2022-09-17T09:27:47.946Z,26112.00
2022-09-17T09:28:47.941Z,23200.00
2022-09-17T09:29:47.911Z,22944.00
2022-09-17T09:30:47.897Z,23008.00
2022-09-17T09:31:47.961Z,21344.00
2022-09-17T09:32:47.887Z,18400.00
2022-09-17T09:33:48.209Z,15512.00
2022-09-17T09:34:47.857Z,14440.00
2022-09-17T09:35:47.898Z,15072.00
2022-09-17T09:36:47.888Z,16240.00
2022-09-17T09:37:47.829Z,17336.00
2022-09-17T09:38:47.822Z,18944.00
2022-09-17T09:39:47.808Z,21920.00
2022-09-17T09:40:47.799Z,27936.00
2022-09-17T09:41:47.840Z,38976.00
2022-09-17T09:42:47.747Z,53792.00
2022-09-17T09:44:04.421Z,54304.00
2022-09-17T09:44:48.732Z,81696.00
2022-09-17T09:45:47.751Z,57696.00
2022-09-17T09:46:47.828Z,52672.00
2022-09-17T09:47:47.732Z,47168.00
2022-09-17T09:48:47.701Z,45056.00
2022-09-17T09:49:47.704Z,42176.00
2022-09-17T09:51:06.611Z,48864.00
2022-09-17T09:51:48.712Z,42624.00
2022-09-17T09:52:47.660Z,52608.00
2022-09-17T09:53:47.652Z,35264.00
2022-09-17T09:54:47.637Z,32864.00
2022-09-17T09:55:47.628Z,33024.00
2022-09-17T09:56:47.644Z,34112.00
2022-09-17T09:57:47.621Z,34048.00
2022-09-17T09:58:47.606Z,33184.00
2022-09-17T09:59:47.581Z,33056.00
2022-09-17T10:00:47.560Z,32576.00
2022-09-17T10:01:47.712Z,31296.00
2022-09-17T10:02:47.606Z,30112.00
2022-09-17T10:03:47.519Z,29248.00
2022-09-17T10:04:50.276Z,28928.00
2022-09-17T10:05:48.502Z,29248.00
2022-09-17T10:06:47.547Z,29472.00
2022-09-17T10:07:47.502Z,30240.00
2022-09-17T10:08:47.529Z,30784.00
2022-09-17T10:09:47.481Z,31008.00
2022-09-17T10:10:47.467Z,32544.00
2022-09-17T10:11:47.491Z,35520.00
2022-09-17T10:12:47.440Z,38944.00
2022-09-17T10:13:47.424Z,47744.00
2022-09-17T10:14:47.395Z,36416.00
2022-09-17T10:15:47.444Z,31328.00
2022-09-17T10:16:47.425Z,29632.00
2022-09-17T10:17:47.386Z,28736.00
2022-09-17T10:18:47.361Z,26336.00
2022-09-17T10:19:47.361Z,23328.00
2022-09-17T10:20:47.342Z,20576.00
2022-09-17T10:21:47.395Z,17728.00
2022-09-17T10:22:47.322Z,15960.00
2022-09-17T10:23:47.329Z,14912.00
2022-09-17T10:24:47.301Z,13092.00
2022-09-17T10:25:47.311Z,10600.00
2022-09-17T10:26:47.328Z,10856.00
2022-09-17T10:27:47.267Z,13748.00
2022-09-17T10:28:47.277Z,19072.00
2022-09-17T10:29:47.243Z,23008.00
2022-09-17T10:30:47.261Z,26240.00
2022-09-17T10:31:47.411Z,28672.00
2022-09-17T10:32:47.192Z,30464.00
2022-09-17T10:33:47.200Z,36512.00
2022-09-17T10:34:47.162Z,30464.00
2022-09-17T10:35:47.184Z,47456.00
2022-09-17T10:36:47.199Z,43136.00
2022-09-17T10:37:47.172Z,80896.00
2022-09-17T10:38:47.192Z,78848.00
2022-09-17T10:39:47.156Z,80128.00
2022-09-17T10:40:47.124Z,18720.00
2022-09-17T10:41:47.156Z,15844.00
2022-09-17T10:42:47.102Z,13156.00
2022-09-17T10:43:47.087Z,11688.00
2022-09-17T10:44:47.083Z,12824.00
2022-09-17T10:45:47.072Z,16692.00
2022-09-17T10:46:47.146Z,21760.00
2022-09-17T10:47:47.062Z,20320.00
2022-09-17T10:48:47.031Z,17960.00
2022-09-17T10:49:47.038Z,16920.00
2022-09-17T10:50:47.004Z,18560.00
2022-09-17T10:51:47.035Z,19328.00
2022-09-17T10:52:46.978Z,18560.00
2022-09-17T10:53:46.990Z,18752.00
2022-09-17T10:54:46.963Z,20032.00
2022-09-17T10:55:46.978Z,22048.00
2022-09-17T10:56:46.942Z,24800.00
2022-09-17T10:57:46.925Z,25696.00
2022-09-17T10:58:46.914Z,26496.00
2022-09-17T10:59:46.906Z,27712.00
2022-09-17T11:00:46.924Z,34880.00
2022-09-17T11:01:46.928Z,31616.00
2022-09-17T11:02:46.959Z,45824.00
2022-09-17T11:03:46.869Z,29184.00
2022-09-17T11:04:46.841Z,27488.00
2022-09-17T11:05:46.870Z,29632.00
2022-09-17T11:06:46.833Z,32000.00
2022-09-17T11:07:46.826Z,47712.00
2022-09-17T11:08:46.817Z,62208.00
2022-09-17T11:09:46.803Z,73696.00
2022-09-17T11:10:46.828Z,69952.00
2022-09-17T11:11:46.785Z,53472.00
2022-09-17T11:12:46.762Z,54560.00
2022-09-17T11:13:46.748Z,69216.00
2022-09-17T11:14:46.740Z,59968.00
2022-09-17T11:15:50.798Z,64448.00
2022-09-17T11:16:47.755Z,61152.00
2022-09-17T11:17:46.700Z,58656.00
2022-09-17T11:18:46.670Z,55648.00
2022-09-17T11:19:46.707Z,45600.00
2022-09-17T11:20:46.724Z,57824.00
2022-09-17T11:21:46.660Z,55840.00
2022-09-17T11:22:46.644Z,56864.00
2022-09-17T11:23:46.720Z,47264.00
2022-09-17T11:24:46.637Z,62240.00
2022-09-17T11:25:46.656Z,68832.00
2022-09-17T11:26:46.609Z,31616.00
2022-09-17T11:27:46.601Z,60448.00
2022-09-17T11:28:46.583Z,32480.00
2022-09-17T11:29:46.560Z,79520.00
2022-09-17T11:30:46.593Z,31712.00
2022-09-17T11:31:46.598Z,47392.00
2022-09-17T11:32:46.541Z,69696.00
2022-09-17T11:33:46.538Z,62400.00
2022-09-17T11:34:46.554Z,58144.00
2022-09-17T11:35:46.541Z,52960.00
2022-09-17T11:36:46.475Z,30304.00
2022-09-17T11:37:46.476Z,54784.00
2022-09-17T11:38:46.559Z,54592.00
2022-09-17T11:39:46.470Z,56416.00
2022-09-17T11:40:46.497Z,57696.00
2022-09-17T11:41:46.446Z,58144.00
2022-09-17T11:42:46.424Z,55424.00
2022-09-17T11:43:46.422Z,54304.00
2022-09-17T11:44:46.405Z,50656.00
2022-09-17T11:45:46.434Z,48480.00
2022-09-17T11:46:46.452Z,48416.00
2022-09-17T11:47:46.368Z,49408.00
2022-09-17T11:48:46.354Z,48800.00
2022-09-17T11:49:46.347Z,49440.00
2022-09-17T11:50:46.392Z,51072.00
2022-09-17T11:51:46.322Z,55776.00
2022-09-17T11:52:46.354Z,56480.00
2022-09-17T11:53:46.374Z,42816.00
2022-09-17T11:54:46.301Z,23072.00
2022-09-17T11:55:46.327Z,22144.00
2022-09-17T11:56:46.268Z,16304.00
2022-09-17T11:57:46.277Z,10788.00
2022-09-17T11:58:46.243Z,6880.00
2022-09-17T11:59:46.227Z,7336.00
2022-09-17T12:00:46.267Z,10192.00
2022-09-17T12:01:46.265Z,14412.00
2022-09-17T12:02:46.320Z,19872.00
2022-09-17T12:03:46.223Z,24864.00
2022-09-17T12:04:46.179Z,39296.00
2022-09-17T12:05:46.217Z,23872.00
2022-09-17T12:06:46.156Z,19680.00
2022-09-17T12:07:46.139Z,15484.00
2022-09-17T12:08:46.122Z,13308.00
2022-09-17T12:09:46.115Z,13432.00
2022-09-17T12:10:46.143Z,15220.00
2022-09-17T12:11:46.107Z,18112.00
2022-09-17T12:12:50.036Z,22368.00
2022-09-17T12:13:46.082Z,26272.00
2022-09-17T12:14:46.081Z,28736.00
2022-09-17T12:15:49.738Z,29888.00
2022-09-17T12:16:47.068Z,38304.00
2022-09-17T12:17:46.047Z,67200.00
2022-09-17T12:18:46.023Z,66624.00
2022-09-17T12:19:46.036Z,70016.00
2022-09-17T12:20:46.047Z,56064.00
2022-09-17T12:21:46.015Z,37280.00